Time;durP1;ratioP1;P1;durP2;ratioP2;P2;SDS_P1;SDS_P2;PMS_P1;PMS_P2;Temp;Humidity;BMP_temperature;BMP_pressure;BME280_temperature;BME280_humidity;BME280_pressure;Samples;Min_cycle;Max_cycle;Signal;HPM_P1;HPM_P2
2022/11/11 00:01:30;;;;;;;27.80;13.48;;;;;;;10.27;81.11;101410.06;4457320;32;34210;-78
2022/11/11 00:04:15;;;;;;;23.65;13.32;;;;;;;10.10;81.15;101411.44;4454253;32;34267;-78
2022/11/11 00:07:01;;;;;;;30.98;14.75;;;;;;;9.64;83.73;101407.28;4461740;32;35443;-78
2022/11/11 00:09:47;;;;;;;30.55;15.48;;;;;;;9.58;83.56;101414.59;4457635;32;33711;-78
2022/11/11 00:12:34;;;;;;;28.48;14.45;;;;;;;9.66;83.40;101412.56;4452278;32;34239;-78
2022/11/11 00:15:20;;;;;;;26.27;14.43;;;;;;;9.14;85.25;101425.06;4458200;32;33766;-78
2022/11/11 00:27:30;;;;;;;31.17;16.42;;;;;;;8.93;87.49;101444.09;4455603;32;33561;-78
2022/11/11 00:30:16;;;;;;;30.85;16.15;;;;;;;9.15;86.65;101442.34;4443350;32;34489;-78
2022/11/11 00:33:02;;;;;;;35.42;16.75;;;;;;;9.88;83.11;101430.56;4461472;32;33829;-77
2022/11/11 00:35:53;;;;;;;32.25;16.75;;;;;;;9.28;84.58;101433.87;4461741;32;34087;-77
2022/11/11 00:38:45;;;;;;;36.67;17.77;;;;;;;8.80;87.93;101430.19;4455419;32;33838;-77
2022/11/11 00:41:31;;;;;;;41.97;18.73;;;;;;;9.24;85.79;101437.91;4464184;32;33763;-77
2022/11/11 00:44:17;;;;;;;39.30;18.48;;;;;;;8.97;87.00;101443.53;4455790;32;34146;-77
2022/11/11 00:53:26;;;;;;;34.20;18.50;;;;;;;8.44;90.41;101444.63;4451024;32;33799;-77
2022/11/11 00:56:13;;;;;;;38.13;20.10;;;;;;;8.19;92.74;101452.06;4466709;32;34644;-77
2022/11/11 00:58:59;;;;;;;40.17;20.27;;;;;;;8.10;93.61;101447.84;4460811;32;33987;-78
2022/11/11 01:01:44;;;;;;;41.72;20.42;;;;;;;8.07;93.51;101454.56;4464662;32;33707;-78
2022/11/11 01:04:30;;;;;;;38.42;20.10;;;;;;;7.77;95.79;101441.72;4456067;32;33740;-77
2022/11/11 01:07:17;;;;;;;40.60;20.75;;;;;;;8.02;94.43;101440.34;4460519;32;33865;-77
2022/11/11 01:10:03;;;;;;;40.38;19.48;;;;;;;7.94;94.77;101436.25;4461771;32;33747;-77
2022/11/11 01:13:10;;;;;;;37.53;18.98;;;;;;;8.21;93.24;101442.75;4465222;32;34405;-78
2022/11/11 01:16:02;;;;;;;37.67;19.10;;;;;;;8.30;92.09;101439.09;4463609;32;33825;-77
2022/11/11 01:18:50;;;;;;;35.15;19.67;;;;;;;9.97;82.53;101433.84;4456869;32;33967;-77
2022/11/11 01:24:44;;;;;;;39.05;20.62;;;;;;;7.98;92.40;101435.72;4270053;27;33497;-77
2022/11/11 01:27:33;;;;;;;40.22;18.98;;;;;;;7.80;94.62;101436.78;4455146;32;34788;-77
2022/11/11 01:30:20;;;;;;;39.38;19.17;;;;;;;7.79;94.70;101435.91;4452908;32;35133;-77
2022/11/11 01:33:08;;;;;;;43.17;21.17;;;;;;;8.77;90.52;101437.72;4455338;32;33991;-77
2022/11/11 01:35:55;;;;;;;41.50;20.73;;;;;;;8.00;92.44;101439.34;4455081;32;34401;-77
2022/11/11 01:38:42;;;;;;;35.90;18.90;;;;;;;8.21;91.19;101441.84;4462251;32;34500;-77
2022/11/11 01:41:35;;;;;;;41.25;19.42;;;;;;;8.88;87.88;101435.06;4459967;32;34722;-78
2022/11/11 01:44:43;;;;;;;36.15;20.05;;;;;;;8.02;92.81;101444.63;4453160;32;34172;-77
2022/11/11 01:49:17;;;;;;;40.85;21.35;;;;;;;7.67;95.12;101446.13;4448261;32;34304;-77
2022/11/11 01:50:57;;;;;;;42.10;22.45;;;;;;;7.48;96.14;101435.94;4453316;32;33435;-77
2022/11/11 01:53:43;;;;;;;42.65;22.80;;;;;;;7.60;95.85;101448.06;4449428;32;33960;-77
2022/11/11 01:56:29;;;;;;;41.33;21.42;;;;;;;7.92;94.30;101440.41;4436351;32;34060;-77
2022/11/11 01:59:16;;;;;;;42.67;21.62;;;;;;;7.88;93.74;101438.34;4442993;32;34486;-77
2022/11/11 02:02:08;;;;;;;40.50;18.90;;;;;;;7.85;93.53;101430.34;4428002;32;34017;-77
2022/11/11 02:08:02;;;;;;;39.88;20.20;;;;;;;8.02;92.59;101440.34;4433288;32;34744;-77
2022/11/11 02:10:49;;;;;;;34.50;19.27;;;;;;;7.67;94.21;101435.81;4451077;32;33669;-78
2022/11/11 02:16:44;;;;;;;41.05;20.80;;;;;;;7.67;96.43;101442.66;4460114;32;34013;-77
2022/11/11 02:19:41;;;;;;;41.63;21.30;;;;;;;8.13;93.04;101440.31;4455384;32;34141;-77
2022/11/11 02:22:56;;;;;;;42.28;21.45;;;;;;;8.42;91.34;101437.50;4460043;32;32415;-77
2022/11/11 02:25:45;;;;;;;37.67;18.87;;;;;;;8.14;94.07;101439.56;4439909;32;34677;-78
2022/11/11 02:28:32;;;;;;;37.45;18.77;;;;;;;9.16;87.84;101441.59;4458777;32;34076;-78
2022/11/11 02:31:18;;;;;;;38.47;19.35;;;;;;;8.85;88.89;101441.81;4460034;32;33826;-78
2022/11/11 02:34:04;;;;;;;40.72;20.98;;;;;;;9.15;87.70;101447.53;4454832;32;33745;-77
2022/11/11 02:36:51;;;;;;;43.13;18.83;;;;;;;8.32;93.03;101448.75;4462206;32;33715;-77
2022/11/11 02:39:41;;;;;;;39.72;19.55;;;;;;;8.19;92.81;101445.97;4450942;32;34569;-77
2022/11/11 02:42:47;;;;;;;37.10;18.30;;;;;;;8.77;90.08;101442.91;4455965;32;34978;-78
2022/11/11 02:45:33;;;;;;;40.92;18.33;;;;;;;8.33;91.95;101453.16;4457546;32;33408;-77
2022/11/11 02:48:19;;;;;;;36.20;18.40;;;;;;;9.11;88.45;101454.94;4456621;32;33960;-77
2022/11/11 02:51:07;;;;;;;35.40;16.62;;;;;;;8.47;90.62;101454.28;4461454;32;34164;-77
2022/11/11 02:53:57;;;;;;;31.05;16.50;;;;;;;9.61;84.64;101456.19;4455537;32;34056;-78
2022/11/11 02:59:49;;;;;;;31.37;16.25;;;;;;;10.00;81.30;101454.75;4464324;32;33683;-77
2022/11/11 03:02:35;;;;;;;31.20;15.70;;;;;;;10.11;80.42;101458.16;4457738;32;33710;-78
2022/11/11 03:05:22;;;;;;;30.98;15.48;;;;;;;10.06;80.53;101466.38;4463238;32;34974;-78
2022/11/11 03:08:08;;;;;;;29.08;14.70;;;;;;;9.98;80.32;101461.50;4437627;32;33093;-77
2022/11/11 03:10:55;;;;;;;31.67;16.23;;;;;;;9.93;80.79;101473.25;4459204;32;33968;-77
2022/11/11 03:13:41;;;;;;;33.05;17.55;;;;;;;9.97;80.94;101483.03;4456150;32;33761;-77
2022/11/11 03:19:32;;;;;;;34.97;18.42;;;;;;;10.26;79.75;101485.94;4450573;32;33830;-77
2022/11/11 03:22:18;;;;;;;36.25;18.00;;;;;;;9.90;80.19;101491.13;4442489;32;33748;-77
2022/11/11 03:25:39;;;;;;;37.78;18.83;;;;;;;8.88;86.06;101489.34;4452216;32;34639;-78
2022/11/11 03:28:25;;;;;;;39.10;18.02;;;;;;;7.87;92.96;101501.03;4443544;32;34182;-77
2022/11/11 03:31:11;;;;;;;35.85;19.55;;;;;;;8.06;92.77;101499.19;4454146;32;33746;-77
2022/11/11 03:34:17;;;;;;;42.47;20.35;;;;;;;7.74;94.17;101503.38;4454245;32;34781;-77
2022/11/11 03:40:12;;;;;;;48.95;23.95;;;;;;;8.70;88.71;101512.06;4427424;32;32422;-77
2022/11/11 03:42:58;;;;;;;49.20;25.50;;;;;;;8.14;90.97;101528.22;4454312;32;34468;-77
2022/11/11 03:45:51;;;;;;;45.85;23.02;;;;;;;8.05;91.37;101517.12;4434325;32;33856;-77
2022/11/11 03:48:36;;;;;;;49.53;24.67;;;;;;;7.97;92.31;101524.22;4444419;32;33605;-77
2022/11/11 03:51:23;;;;;;;45.83;23.80;;;;;;;7.94;93.70;101518.84;4441984;32;34734;-77
2022/11/11 03:54:09;;;;;;;39.60;20.83;;;;;;;7.81;94.41;101522.06;4445443;32;33896;-77
2022/11/11 03:59:59;;;;;;;42.97;22.50;;;;;;;8.11;90.87;101522.78;4454171;32;34005;-77
2022/11/11 04:11:59;;;;;;;46.60;23.92;;;;;;;8.03;89.61;101524.72;4454054;32;34644;-78
2022/11/11 04:17:49;;;;;;;45.03;21.90;;;;;;;7.12;99.99;101518.78;4452855;32;34477;-77
2022/11/11 04:23:39;;;;;;;51.42;25.00;;;;;;;6.96;100.00;101538.87;4453829;32;34611;-77
2022/11/11 04:26:25;;;;;;;49.03;25.25;;;;;;;7.03;100.00;101536.03;4443334;32;34889;-77
2022/11/11 04:29:29;;;;;;;49.22;25.08;;;;;;;6.82;100.00;101543.72;4453920;32;34575;-77
2022/11/11 04:32:35;;;;;;;52.58;25.95;;;;;;;7.50;97.51;101539.22;4441850;32;33902;-78
2022/11/11 04:35:22;;;;;;;46.10;24.45;;;;;;;7.04;98.53;101540.44;4448734;32;34005;-78
2022/11/11 04:41:12;;;;;;;48.60;24.52;;;;;;;7.46;97.00;101547.47;4444275;32;33855;-78
2022/11/11 04:47:03;;;;;;;52.13;25.62;;;;;;;6.96;100.00;101542.34;4446571;32;33749;-78
2022/11/11 04:49:49;;;;;;;52.60;24.65;;;;;;;7.64;97.90;101548.13;4451323;32;35568;-78
2022/11/11 04:52:34;;;;;;;56.42;26.90;;;;;;;7.48;99.72;101551.09;4453351;32;33466;-78
2022/11/11 04:58:28;;;;;;;65.90;28.08;;;;;;;6.57;100.00;101560.34;4443107;32;34096;-78
2022/11/11 05:03:14;;;;;;;86.45;31.40;;;;;;;6.76;100.00;101563.78;4449838;32;34789;-78
2022/11/11 05:04:19;;;;;;;65.57;29.50;;;;;;;6.30;100.00;101564.84;4450802;32;33142;-78
2022/11/11 05:10:09;;;;;;;86.43;32.05;;;;;;;6.52;100.00;101561.59;4450070;32;35388;-78
2022/11/11 05:21:19;;;;;;;73.72;31.75;;;;;;;6.56;100.00;101569.72;4453604;32;34328;-78
2022/11/11 05:22:33;;;;;;;57.17;27.35;;;;;;;7.94;99.84;101554.97;4453324;32;34648;-78
2022/11/11 05:25:25;;;;;;;60.17;29.48;;;;;;;7.45;99.90;101566.28;4441546;32;34937;-78
2022/11/11 05:28:11;;;;;;;49.45;23.10;;;;;;;7.05;100.00;101567.97;4447776;32;33891;-78
2022/11/11 05:30:56;;;;;;;53.15;24.98;;;;;;;7.56;100.00;101559.47;4450157;32;33324;-78
2022/11/11 05:33:42;;;;;;;50.67;25.12;;;;;;;7.36;99.90;101560.31;4452780;32;33714;-78
2022/11/11 05:36:28;;;;;;;51.88;22.98;;;;;;;6.69;100.00;101572.63;4445708;32;34074;-77
2022/11/11 05:39:14;;;;;;;55.33;27.73;;;;;;;7.19;100.00;101561.47;4450050;32;34549;-77
2022/11/11 05:41:59;;;;;;;52.90;24.17;;;;;;;7.01;100.00;101571.06;4452360;32;32789;-77
2022/11/11 05:44:45;;;;;;;51.85;21.90;;;;;;;6.99;100.00;101563.22;4453134;32;33808;-77
2022/11/11 05:47:31;;;;;;;49.33;22.67;;;;;;;7.64;100.00;101572.22;4452987;32;34135;-78
2022/11/11 05:50:17;;;;;;;55.05;23.65;;;;;;;7.41;98.09;101574.53;4450675;32;33703;-78
2022/11/11 05:53:03;;;;;;;55.15;24.67;;;;;;;6.42;100.00;101576.22;4452954;32;33647;-78
2022/11/11 05:55:51;;;;;;;56.60;24.73;;;;;;;6.84;100.00;101573.09;4444983;32;34714;-78
2022/11/11 05:58:37;;;;;;;66.10;26.83;;;;;;;6.76;100.00;101588.63;4452654;32;34087;-79
2022/11/11 06:01:23;;;;;;;50.45;24.20;;;;;;;6.62;100.00;101579.66;4446819;32;33654;-78
2022/11/11 06:04:09;;;;;;;50.17;23.02;;;;;;;7.55;100.00;101574.06;4440316;32;34604;-78
2022/11/11 06:07:03;;;;;;;44.50;21.50;;;;;;;8.02;97.24;101568.50;4448684;32;33287;-78
2022/11/11 06:09:49;;;;;;;40.65;20.98;;;;;;;7.56;97.64;101583.56;4451052;32;34352;-77
2022/11/11 06:13:00;;;;;;;45.03;21.77;;;;;;;6.48;100.00;101597.38;4451126;32;33702;-79
2022/11/11 06:15:46;;;;;;;46.37;22.62;;;;;;;6.19;100.00;101597.31;4436579;32;33202;-77
2022/11/11 06:18:32;;;;;;;44.67;20.75;;;;;;;6.50;100.00;101600.09;4443625;32;34580;-78
2022/11/11 06:21:18;;;;;;;42.28;21.90;;;;;;;6.63;100.00;101607.25;4447518;32;34233;-78
2022/11/11 06:24:04;;;;;;;43.15;20.98;;;;;;;6.41;100.00;101610.47;4439704;32;33494;-79
2022/11/11 06:26:50;;;;;;;42.47;19.60;;;;;;;6.40;100.00;101605.19;4456159;32;34709;-78
2022/11/11 06:29:36;;;;;;;42.88;20.15;;;;;;;6.50;100.00;101606.13;4448259;32;34563;-79
2022/11/11 06:32:22;;;;;;;34.88;18.12;;;;;;;6.43;100.00;101611.50;4452098;32;34954;-77
2022/11/11 06:35:08;;;;;;;40.45;19.90;;;;;;;6.70;99.23;101627.59;4450409;32;33130;-79
2022/11/11 06:37:54;;;;;;;37.67;18.58;;;;;;;6.55;100.00;101628.81;4450376;32;33893;-78
2022/11/11 06:40:43;;;;;;;36.08;18.25;;;;;;;6.41;100.00;101625.91;4432750;32;34407;-78
2022/11/11 06:43:30;;;;;;;41.65;20.30;;;;;;;6.05;100.00;101615.75;4447009;32;34170;-78
2022/11/11 06:46:23;;;;;;;40.88;20.88;;;;;;;6.60;100.00;101619.84;4449936;32;33615;-78
2022/11/11 06:49:09;;;;;;;54.70;25.52;;;;;;;6.30;100.00;101626.59;4452255;32;34475;-78
2022/11/11 06:51:55;;;;;;;47.60;24.20;;;;;;;6.18;100.00;101620.31;4452928;32;33884;-79
2022/11/11 06:54:40;;;;;;;49.92;23.70;;;;;;;6.24;100.00;101623.47;4440563;32;34454;-78
2022/11/11 06:57:26;;;;;;;45.63;21.50;;;;;;;6.57;100.00;101628.19;4450138;32;34361;-78
2022/11/11 07:00:13;;;;;;;45.70;22.65;;;;;;;7.61;99.21;101626.16;4450553;32;34844;-79
2022/11/11 07:02:59;;;;;;;46.70;21.70;;;;;;;6.97;100.00;101623.09;4438149;32;34592;-78
2022/11/11 07:05:45;;;;;;;43.25;21.27;;;;;;;7.17;100.00;101635.19;4441330;32;34192;-78
2022/11/11 07:08:31;;;;;;;45.15;22.58;;;;;;;7.75;100.00;101639.31;4454267;32;34430;-78
2022/11/11 07:11:17;;;;;;;42.65;21.65;;;;;;;7.54;99.07;101651.28;4452743;32;33833;-78
2022/11/11 07:14:04;;;;;;;46.45;22.37;;;;;;;7.03;100.00;101659.72;4452828;32;33664;-78
2022/11/11 07:16:50;;;;;;;48.53;23.55;;;;;;;7.91;99.33;101657.91;4457187;32;33599;-78
2022/11/11 07:19:35;;;;;;;42.75;20.35;;;;;;;8.35;95.07;101662.44;4455886;32;35072;-78
2022/11/11 07:22:21;;;;;;;46.53;22.10;;;;;;;8.62;94.26;101666.44;4441161;32;33174;-78
2022/11/11 07:25:07;;;;;;;45.25;22.25;;;;;;;8.58;94.88;101672.12;4453411;32;33758;-78
2022/11/11 07:27:53;;;;;;;46.97;23.38;;;;;;;8.39;95.71;101680.87;4454272;32;34777;-78
2022/11/11 07:30:44;;;;;;;46.80;21.52;;;;;;;8.96;93.45;101683.03;4453000;32;33530;-78
2022/11/11 07:33:30;;;;;;;44.92;21.70;;;;;;;8.40;94.18;101686.94;4453431;32;33711;-79
2022/11/11 07:36:15;;;;;;;44.35;22.00;;;;;;;8.16;99.29;101691.84;4451752;32;34610;-78
2022/11/11 07:39:01;;;;;;;44.28;21.05;;;;;;;8.08;100.00;101693.78;4448231;32;34290;-78
2022/11/11 07:41:53;;;;;;;43.28;19.92;;;;;;;7.40;100.00;101699.97;4454012;32;33707;-78
2022/11/11 07:44:40;;;;;;;40.58;21.77;;;;;;;7.99;100.00;101693.00;4453061;32;33915;-78
2022/11/11 07:47:33;;;;;;;36.33;20.05;;;;;;;8.89;95.69;101708.25;4454317;32;33828;-78
2022/11/11 07:50:19;;;;;;;37.17;20.25;;;;;;;9.30;93.18;101714.16;4446952;32;34226;-78
2022/11/11 07:53:04;;;;;;;34.67;19.45;;;;;;;8.28;98.53;101707.47;4454438;32;33577;-78
2022/11/11 07:55:50;;;;;;;33.97;18.73;;;;;;;9.24;93.60;101717.16;4449610;32;33846;-78
2022/11/11 07:58:36;;;;;;;36.67;19.62;;;;;;;9.04;94.87;101702.62;4444280;32;34185;-78
2022/11/11 08:01:22;;;;;;;34.88;17.75;;;;;;;8.52;98.67;101700.94;4453460;32;34694;-78
2022/11/11 08:04:08;;;;;;;32.50;17.08;;;;;;;9.33;92.51;101703.16;4454043;32;32660;-78
2022/11/11 08:06:54;;;;;;;31.17;16.92;;;;;;;9.07;93.33;101701.06;4453390;32;34013;-79
2022/11/11 08:09:40;;;;;;;31.60;16.92;;;;;;;8.67;97.73;101698.69;4453874;32;34645;-78
2022/11/11 08:15:30;;;;;;;35.83;18.15;;;;;;;9.63;91.14;101708.19;4451880;32;33880;-78
2022/11/11 08:18:15;;;;;;;29.77;16.83;;;;;;;9.69;91.04;101717.22;4441788;32;34118;-78
2022/11/11 08:21:03;;;;;;;33.35;17.23;;;;;;;9.31;91.66;101712.47;4454068;32;33865;-78
2022/11/11 08:23:51;;;;;;;31.75;15.90;;;;;;;8.83;96.55;101712.13;4438334;32;34010;-78
2022/11/11 08:26:57;;;;;;;30.40;17.83;;;;;;;10.28;88.61;101702.84;4436190;32;33602;-78
2022/11/11 08:29:43;;;;;;;30.77;16.58;;;;;;;10.23;88.77;101704.19;4451091;32;33485;-78
2022/11/11 08:32:28;;;;;;;28.23;16.33;;;;;;;10.01;88.62;101696.47;4443776;32;33753;-78
2022/11/11 08:35:14;;;;;;;30.33;16.08;;;;;;;9.94;89.03;101705.41;4452749;32;34887;-79
2022/11/11 08:38:01;;;;;;;26.87;15.57;;;;;;;10.01;90.14;101712.00;4453009;32;33495;-79
2022/11/11 08:40:47;;;;;;;26.87;15.52;;;;;;;10.54;86.35;101724.69;4433693;32;34310;-78
2022/11/11 08:43:33;;;;;;;32.08;16.40;;;;;;;10.31;88.49;101718.63;4450337;32;34786;-78
2022/11/11 08:46:23;;;;;;;29.75;15.98;;;;;;;9.45;93.12;101722.25;4442588;32;34803;-78
2022/11/11 08:49:10;;;;;;;27.75;14.95;;;;;;;10.08;89.38;101708.16;4439503;32;33083;-79
2022/11/11 08:51:56;;;;;;;32.08;15.15;;;;;;;10.67;85.53;101709.28;4444395;32;34788;-79
2022/11/11 08:54:42;;;;;;;28.65;16.45;;;;;;;10.13;88.46;101706.84;4453731;32;33751;-78
2022/11/11 08:57:27;;;;;;;28.70;15.98;;;;;;;9.81;90.08;101723.34;4453934;32;34088;-78
2022/11/11 09:00:14;;;;;;;27.37;15.60;;;;;;;9.79;92.03;101714.56;4441642;32;33782;-78
2022/11/11 09:03:01;;;;;;;25.50;15.05;;;;;;;9.94;91.11;101725.22;4453332;32;33685;-78
2022/11/11 09:05:47;;;;;;;26.80;15.10;;;;;;;10.94;85.86;101725.06;4453435;32;33874;-78
2022/11/11 09:08:33;;;;;;;27.58;15.23;;;;;;;9.50;91.80;101717.44;4453997;32;33941;-78
2022/11/11 09:11:19;;;;;;;26.00;14.68;;;;;;;9.98;91.56;101733.34;4453005;32;34257;-78
2022/11/11 09:14:05;;;;;;;26.50;14.48;;;;;;;10.49;88.53;101729.53;4453353;32;33808;-79
2022/11/11 09:16:51;;;;;;;26.17;14.00;;;;;;;10.92;85.13;101716.28;4447996;32;33748;-78
2022/11/11 09:19:36;;;;;;;25.10;14.07;;;;;;;10.93;84.89;101720.66;4436833;32;34961;-78
2022/11/11 09:22:23;;;;;;;28.75;15.35;;;;;;;11.28;83.61;101725.88;4451316;32;33578;-78
2022/11/11 09:25:09;;;;;;;28.30;14.75;;;;;;;10.48;89.22;101726.81;4448333;32;32798;-78
2022/11/11 09:27:59;;;;;;;29.33;15.23;;;;;;;10.42;88.22;101722.97;4449152;32;34869;-78
2022/11/11 09:30:46;;;;;;;27.65;14.38;;;;;;;10.39;89.26;101719.22;4453094;32;34223;-78
2022/11/11 09:33:31;;;;;;;24.20;14.63;;;;;;;10.75;88.41;101713.31;4452875;32;33737;-78
2022/11/11 09:36:18;;;;;;;30.75;16.85;;;;;;;10.58;88.44;101724.13;4441515;32;34041;-78
2022/11/11 09:39:04;;;;;;;30.67;15.25;;;;;;;11.12;85.59;101720.34;4453573;32;33894;-78
2022/11/11 09:41:59;;;;;;;27.23;15.70;;;;;;;10.80;85.28;101724.94;4451328;32;34856;-78
2022/11/11 09:45:01;;;;;;;28.40;15.82;;;;;;;11.41;84.55;101714.66;4434793;32;33821;-78
2022/11/11 09:48:11;;;;;;;33.45;16.70;;;;;;;11.15;85.70;101721.47;4450958;32;34746;-79
2022/11/11 09:50:58;;;;;;;28.23;16.23;;;;;;;9.94;92.61;101705.41;4452688;32;33902;-79
2022/11/11 09:53:50;;;;;;;32.38;16.80;;;;;;;10.53;89.95;101709.94;4428344;32;34219;-79
2022/11/11 09:56:37;;;;;;;28.62;15.68;;;;;;;10.71;89.21;101711.28;4436558;32;33467;-78
2022/11/11 09:59:29;;;;;;;32.05;17.73;;;;;;;11.41;86.81;101709.47;4437617;32;34192;-78
2022/11/11 10:02:33;;;;;;;31.92;15.93;;;;;;;11.56;83.79;101712.28;4438540;32;33964;-79
2022/11/11 10:05:32;;;;;;;32.05;16.52;;;;;;;10.84;88.50;101707.94;4434746;32;34969;-79
2022/11/11 10:08:25;;;;;;;27.00;15.75;;;;;;;11.05;87.87;101703.44;4439630;32;34454;-79
2022/11/11 10:11:21;;;;;;;24.15;16.08;;;;;;;11.90;84.13;101699.09;4452547;32;33966;-79
2022/11/11 10:14:07;;;;;;;27.02;15.38;;;;;;;12.46;82.21;101695.97;4430730;32;33962;-79
2022/11/11 10:17:20;;;;;;;27.25;15.98;;;;;;;12.52;80.98;101707.72;4449283;32;34305;-79
2022/11/11 10:20:37;;;;;;;28.00;15.80;;;;;;;12.00;83.23;101698.97;4446884;32;33779;-78
2022/11/11 10:23:32;;;;;;;26.83;14.23;;;;;;;12.16;82.52;101695.72;4416739;32;33389;-78
2022/11/11 10:26:22;;;;;;;25.88;16.02;;;;;;;12.87;79.68;101685.75;4440124;32;34476;-79
2022/11/11 10:29:14;;;;;;;26.60;15.15;;;;;;;11.71;83.83;101674.41;4454540;32;34266;-79
2022/11/11 10:32:03;;;;;;;24.77;14.45;;;;;;;11.51;85.47;101680.81;4441530;32;34026;-79
2022/11/11 10:34:49;;;;;;;27.35;15.07;;;;;;;11.52;85.75;101677.41;4450344;32;33899;-79
2022/11/11 10:37:39;;;;;;;28.77;14.90;;;;;;;11.65;84.12;101678.25;4465842;32;34610;-79
2022/11/11 10:40:28;;;;;;;28.52;15.02;;;;;;;11.91;83.92;101673.22;4431373;32;34085;-79
2022/11/11 10:43:34;;;;;;;22.98;13.85;;;;;;;12.89;80.88;101671.16;4462293;32;34606;-79
2022/11/11 10:46:28;;;;;;;;;;;;;;;13.70;75.22;101665.03;4452791;32;33949;-79
2022/11/11 10:49:17;;;;;;;23.73;13.25;;;;;;;13.00;76.94;101671.84;4439998;32;33732;-79
2022/11/11 10:52:05;;;;;;;26.73;15.15;;;;;;;13.28;75.83;101676.22;4455064;32;33883;-79
2022/11/11 10:55:01;;;;;;;26.20;14.63;;;;;;;12.35;80.36;101688.38;4450535;32;34076;-79
2022/11/11 10:58:05;;;;;;;26.25;14.95;;;;;;;12.18;82.29;101694.13;4431904;32;33804;-79
2022/11/11 11:00:53;;;;;;;27.60;14.52;;;;;;;12.91;78.72;101689.47;4454296;32;33415;-79
2022/11/11 11:03:42;;;;;;;29.65;15.70;;;;;;;12.99;78.03;101680.44;4437442;32;34184;-78
2022/11/11 11:06:35;;;;;;;26.95;15.85;;;;;;;12.81;80.05;101685.34;4443557;32;33662;-78
2022/11/11 11:09:27;;;;;;;26.00;16.23;;;;;;;12.54;81.00;101680.13;4442757;32;33991;-79
2022/11/11 11:12:16;;;;;;;24.27;15.27;;;;;;;12.48;80.95;101671.03;4449544;32;33775;-77
2022/11/11 11:15:05;;;;;;;25.65;14.75;;;;;;;13.66;76.74;101652.62;4436934;32;34721;-77
2022/11/11 11:18:10;;;;;;;24.67;14.98;;;;;;;14.47;72.97;101647.91;4432093;32;32996;-77
2022/11/11 11:21:09;;;;;;;27.23;14.60;;;;;;;13.69;75.88;101641.50;4437784;32;34808;-78
2022/11/11 11:23:55;;;;;;;26.87;15.35;;;;;;;13.55;76.39;101638.94;4462773;32;33974;-77
2022/11/11 11:26:43;;;;;;;25.10;15.32;;;;;;;13.29;77.06;101634.69;4446959;32;34861;-78
2022/11/11 11:29:32;;;;;;;24.65;15.10;;;;;;;13.08;78.10;101635.94;4454578;32;35491;-77
2022/11/11 11:32:20;;;;;;;27.60;15.05;;;;;;;12.77;79.98;101646.94;4457375;32;33684;-77
2022/11/11 11:35:07;;;;;;;27.30;15.35;;;;;;;13.69;76.10;101633.69;4439979;32;33428;-78
2022/11/11 11:37:53;;;;;;;26.98;15.40;;;;;;;13.21;77.62;101635.00;4456144;32;33721;-77
2022/11/11 11:40:55;;;;;;;28.00;15.70;;;;;;;12.67;80.55;101632.44;4454537;32;33754;-78
2022/11/11 11:43:42;;;;;;;32.03;15.60;;;;;;;12.54;80.93;101632.44;4442772;32;34610;-78
2022/11/11 11:46:39;;;;;;;26.98;15.95;;;;;;;12.48;80.98;101638.13;4438599;32;32487;-77
2022/11/11 11:49:44;;;;;;;26.65;15.73;;;;;;;13.11;79.50;101639.59;4436788;32;34474;-77
2022/11/11 11:52:38;;;;;;;28.25;15.70;;;;;;;13.06;80.72;101646.22;4455816;32;33525;-77
2022/11/11 11:55:32;;;;;;;32.10;16.90;;;;;;;13.75;77.28;101647.06;4445590;32;33868;-77
2022/11/11 11:58:55;;;;;;;30.42;17.60;;;;;;;12.97;80.58;101645.62;4455262;32;34170;-77
2022/11/11 12:01:54;;;;;;;25.92;15.35;;;;;;;13.25;80.05;101644.78;4442559;32;35012;-78
2022/11/11 12:04:55;;;;;;;27.80;16.60;;;;;;;13.22;81.25;101655.91;4430261;32;33781;-77
2022/11/11 12:07:53;;;;;;;26.05;15.00;;;;;;;13.15;80.56;101646.81;4438424;32;33379;-78
2022/11/11 12:10:51;;;;;;;25.08;14.95;;;;;;;14.09;76.14;101646.53;4442728;32;34023;-74
2022/11/11 12:13:40;;;;;;;25.80;15.63;;;;;;;14.63;73.96;101658.44;4449823;32;35472;-74
2022/11/11 12:16:39;;;;;;;24.60;13.73;;;;;;;13.86;76.87;101666.88;4426145;32;32768;-74
2022/11/11 12:19:55;;;;;;;26.52;14.95;;;;;;;14.81;73.28;101657.72;4441350;32;34131;-74
2022/11/11 12:23:03;;;;;;;22.25;13.13;;;;;;;14.84;73.06;101650.97;4438939;32;34086;-74
2022/11/11 12:26:09;;;;;;;21.33;12.63;;;;;;;14.57;72.94;101652.88;4452580;32;33567;-74
2022/11/11 12:29:26;;;;;;;19.33;10.95;;;;;;;15.12;68.82;101645.59;4453292;32;34347;-75
2022/11/11 12:32:28;;;;;;;18.58;11.05;;;;;;;14.90;69.71;101642.59;4438743;32;34500;-76
2022/11/11 12:35:28;;;;;;;21.85;11.25;;;;;;;15.22;68.13;101635.66;4452861;32;33455;-74
2022/11/11 12:38:33;;;;;;;19.45;11.35;;;;;;;14.59;70.35;101663.41;4418620;32;34186;-75
2022/11/11 12:41:43;;;;;;;19.95;8.65;;;;;;;15.54;66.38;101664.41;4450207;32;34374;-73
2022/11/11 12:45:09;;;;;;;15.43;8.45;;;;;;;15.09;65.78;101653.25;4451623;32;33662;-75
2022/11/11 12:48:16;;;;;;;14.52;7.90;;;;;;;14.39;68.28;101659.59;4451842;32;34331;-76
2022/11/11 12:51:49;;;;;;;17.62;8.40;;;;;;;13.95;70.35;101657.03;4450335;32;33847;-74
2022/11/11 12:54:59;;;;;;;16.73;6.87;;;;;;;14.38;68.42;101639.56;4364250;32;34317;-74
2022/11/11 12:57:44;;;;;;;12.43;7.00;;;;;;;14.95;66.03;101633.31;4435463;32;33695;-74
2022/11/11 13:00:31;;;;;;;13.25;6.45;;;;;;;15.37;64.13;101639.09;4451665;32;33832;-75
2022/11/11 13:03:20;;;;;;;14.30;6.43;;;;;;;14.50;65.11;101658.50;4434910;32;35018;-75
2022/11/11 13:06:25;;;;;;;14.63;6.35;;;;;;;14.77;65.24;101655.75;4451647;32;33748;-74
2022/11/11 13:09:32;;;;;;;14.38;7.28;;;;;;;14.03;67.66;101651.38;4450154;32;33883;-74
2022/11/11 13:12:24;;;;;;;14.32;6.75;;;;;;;14.69;65.72;101644.88;4428410;32;34019;-75
2022/11/11 13:15:17;;;;;;;11.48;6.60;;;;;;;13.70;68.11;101640.72;4435175;32;34367;-74
2022/11/11 13:18:10;;;;;;;12.95;6.70;;;;;;;13.80;68.59;101626.53;4436652;32;33623;-75
2022/11/11 13:20:59;;;;;;;14.10;7.53;;;;;;;15.22;63.50;101614.75;4451479;32;34801;-74
2022/11/11 13:23:45;;;;;;;14.27;8.32;;;;;;;14.55;65.72;101625.78;4450350;32;34606;-74
2022/11/11 13:26:58;;;;;;;12.50;6.95;;;;;;;14.53;65.47;101630.00;4451740;32;34896;-75
2022/11/11 13:29:55;;;;;;;17.75;8.00;;;;;;;13.95;68.52;101630.97;4436503;32;33237;-74
2022/11/11 13:32:46;;;;;;;18.23;8.35;;;;;;;15.06;64.18;101626.97;4436851;32;33833;-75
2022/11/11 13:35:47;;;;;;;12.55;6.72;;;;;;;15.38;62.92;101629.56;4449325;32;34822;-75
2022/11/11 13:38:44;;;;;;;12.95;6.62;;;;;;;15.15;63.07;101631.81;4443256;32;34656;-75
2022/11/11 13:41:33;;;;;;;14.05;7.12;;;;;;;14.65;65.31;101627.25;4449607;32;33637;-74
2022/11/11 13:44:26;;;;;;;17.48;8.05;;;;;;;14.46;65.96;101630.47;4438661;32;33434;-74
2022/11/11 13:47:27;;;;;;;16.17;8.68;;;;;;;14.38;66.22;101623.91;4451239;32;33629;-74
2022/11/11 13:50:31;;;;;;;16.55;9.10;;;;;;;13.93;69.25;101622.16;4448205;32;34489;-74
2022/11/11 13:53:25;;;;;;;18.10;9.10;;;;;;;13.00;72.35;101609.44;4443537;32;33639;-74
2022/11/11 13:56:40;;;;;;;19.23;10.80;;;;;;;13.38;72.07;101608.34;4448050;32;33722;-74
2022/11/11 13:59:29;;;;;;;16.80;9.35;;;;;;;14.12;69.18;101613.75;4448011;32;33741;-74
2022/11/11 14:02:21;;;;;;;21.02;9.90;;;;;;;14.75;66.62;101614.81;4438779;32;33806;-74
2022/11/11 14:05:08;;;;;;;18.87;9.98;;;;;;;13.38;71.45;101608.34;4448306;32;34073;-74
2022/11/11 14:07:56;;;;;;;17.95;10.32;;;;;;;14.64;67.34;101608.09;4454423;32;34219;-74
2022/11/11 14:10:53;;;;;;;18.15;10.43;;;;;;;14.53;67.12;101620.47;4441762;32;34513;-74
2022/11/11 14:13:40;;;;;;;23.05;12.32;;;;;;;13.91;69.91;101617.69;4454745;32;34873;-74
2022/11/11 14:16:32;;;;;;;18.83;11.68;;;;;;;13.52;71.81;101611.81;4447139;32;33485;-74
2022/11/11 14:19:18;;;;;;;21.70;12.18;;;;;;;13.57;72.00;101618.22;4449453;32;34310;-74